Time;durP1;ratioP1;P1;durP2;ratioP2;P2;SDS_P1;SDS_P2;PMS_P1;PMS_P2;Temp;Humidity;BMP_temperature;BMP_pressure;BME280_temperature;BME280_humidity;BME280_pressure;Samples;Min_cycle;Max_cycle;Signal;HPM_P1;HPM_P2
2023/07/15 00:00:18;;;;;;;12.45;6.30;;;;;;;23.18;69.35;94167.16;5062831;28;20028;-82
2023/07/15 00:02:45;;;;;;;12.52;6.18;;;;;;;23.15;69.31;94166.00;5061812;28;20039;-82
2023/07/15 00:05:20;;;;;;;18.73;6.28;;;;;;;23.14;69.65;94172.63;5062893;28;20044;-82
2023/07/15 00:07:46;;;;;;;12.93;6.40;;;;;;;23.19;69.64;94166.03;5062697;28;20017;-81
2023/07/15 00:10:12;;;;;;;8.73;5.72;;;;;;;23.14;69.48;94160.94;5061474;28;20092;-81
2023/07/15 00:12:37;;;;;;;12.35;5.70;;;;;;;23.10;69.47;94155.53;5062530;28;20032;-82
2023/07/15 00:15:03;;;;;;;12.30;6.47;;;;;;;23.08;69.33;94157.84;5062062;28;20101;-81
2023/07/15 00:17:29;;;;;;;9.75;6.40;;;;;;;22.97;69.41;94171.38;5061626;28;20063;-81
2023/07/15 00:19:54;;;;;;;14.30;5.85;;;;;;;22.92;70.01;94169.03;5060240;28;20096;-82
2023/07/15 00:22:19;;;;;;;11.70;7.13;;;;;;;23.00;69.85;94172.56;5061645;28;20029;-80
2023/07/15 00:24:46;;;;;;;12.60;5.90;;;;;;;22.95;70.12;94165.53;5061240;28;20087;-80
2023/07/15 00:27:11;;;;;;;12.02;5.95;;;;;;;22.82;70.55;94161.63;5062666;28;20246;-81
2023/07/15 00:29:37;;;;;;;11.77;6.22;;;;;;;22.82;70.73;94167.06;5062324;28;20123;-81
2023/07/15 00:32:04;;;;;;;13.88;6.63;;;;;;;22.80;71.03;94169.41;5062435;28;20031;-82
2023/07/15 00:34:30;;;;;;;15.27;6.57;;;;;;;22.81;71.17;94162.78;5062260;28;20041;-81
2023/07/15 00:36:55;;;;;;;14.60;6.50;;;;;;;22.85;70.94;94163.56;5062502;28;20036;-82
2023/07/15 00:39:21;;;;;;;10.82;6.25;;;;;;;22.82;71.53;94177.94;5062221;28;20024;-80
2023/07/15 00:41:47;;;;;;;11.15;6.45;;;;;;;22.77;71.48;94175.59;5062417;28;20024;-82
2023/07/15 00:44:15;;;;;;;10.27;6.32;;;;;;;22.73;72.03;94180.22;5065036;28;20131;-81
2023/07/15 00:46:58;;;;;;;8.85;6.70;;;;;;;22.73;71.88;94183.72;5066426;28;20115;-80
2023/07/15 00:49:25;;;;;;;;;;;;;;;22.64;71.90;94183.31;5066446;28;20043;-80
2023/07/15 00:52:16;;;;;;;11.55;5.88;;;;;;;22.60;72.43;94180.56;5065362;28;19913;-82
2023/07/15 00:54:50;;;;;;;15.07;6.65;;;;;;;22.66;72.39;94188.38;5066496;28;20052;-81
2023/07/15 00:57:17;;;;;;;12.02;6.22;;;;;;;22.67;72.25;94184.47;5066290;28;20025;-82
2023/07/15 00:59:44;;;;;;;13.27;5.90;;;;;;;22.69;72.13;94176.72;5065174;28;20025;-81
2023/07/15 01:02:11;;;;;;;14.45;7.22;;;;;;;22.66;71.95;94175.56;5065035;28;20027;-80
2023/07/15 01:04:36;;;;;;;18.58;7.05;;;;;;;22.49;72.03;94185.19;5064979;28;20127;-80
2023/07/15 01:07:04;;;;;;;10.90;6.55;;;;;;;22.41;72.23;94195.22;5064965;28;20039;-81
2023/07/15 01:09:30;;;;;;;10.32;6.38;;;;;;;22.32;72.93;94191.28;5065954;28;20330;-81
2023/07/15 01:11:56;;;;;;;16.55;7.60;;;;;;;22.39;72.48;94188.63;5064841;28;20025;-82
2023/07/15 01:14:21;;;;;;;12.77;6.88;;;;;;;22.42;72.66;94196.78;5064709;28;20025;-81
2023/07/15 01:16:47;;;;;;;13.02;6.47;;;;;;;22.35;72.66;94185.13;5065894;28;20084;-81
2023/07/15 01:19:19;;;;;;;15.60;6.68;;;;;;;22.29;73.18;94186.59;5064739;28;20239;-80
2023/07/15 01:21:50;;;;;;;19.60;7.43;;;;;;;22.22;73.83;94190.81;5065085;28;20052;-81
2023/07/15 01:24:21;;;;;;;12.80;7.30;;;;;;;22.21;74.24;94186.56;5064787;28;20031;-81
2023/07/15 01:26:47;;;;;;;9.40;6.55;;;;;;;22.29;74.08;94187.41;5065681;28;20040;-80
2023/07/15 01:29:13;;;;;;;14.45;7.55;;;;;;;22.27;74.06;94188.94;5065841;28;20246;-80
2023/07/15 01:31:39;;;;;;;12.02;7.13;;;;;;;22.18;74.06;94187.28;5065701;28;20028;-81
2023/07/15 01:34:05;;;;;;;13.02;6.82;;;;;;;22.18;74.18;94190.00;5065603;28;20273;-80
2023/07/15 01:36:30;;;;;;;19.90;7.43;;;;;;;22.10;74.57;94187.63;5065694;28;20302;-80
2023/07/15 01:38:55;;;;;;;14.85;7.10;;;;;;;21.98;75.07;94199.56;5065649;28;20021;-80
2023/07/15 01:41:21;;;;;;;14.63;7.82;;;;;;;21.99;75.36;94193.00;5065712;28;20028;-81
2023/07/15 01:43:46;;;;;;;15.73;8.30;;;;;;;21.97;75.34;94198.81;5066621;28;20020;-80
2023/07/15 01:46:12;;;;;;;13.23;7.63;;;;;;;21.86;75.71;94202.59;5066715;28;20227;-81
2023/07/15 01:48:37;;;;;;;12.80;7.30;;;;;;;21.90;75.78;94200.69;5064591;28;20327;-81
2023/07/15 01:51:03;;;;;;;13.90;7.35;;;;;;;21.74;76.39;94192.84;5065848;28;20017;-81
2023/07/15 01:53:29;;;;;;;12.27;8.02;;;;;;;21.68;77.10;94197.81;5064982;28;20090;-81
2023/07/15 01:55:54;;;;;;;10.77;7.18;;;;;;;21.71;77.10;94190.88;5065347;28;20013;-81
2023/07/15 01:58:20;;;;;;;12.75;7.18;;;;;;;21.78;77.06;94191.69;5065586;28;20023;-81
2023/07/15 02:00:46;;;;;;;10.98;6.43;;;;;;;21.77;77.09;94194.78;5065199;28;20067;-81
2023/07/15 02:03:12;;;;;;;13.88;7.60;;;;;;;21.75;77.48;94197.88;5065613;28;20021;-82
2023/07/15 02:05:37;;;;;;;17.58;7.28;;;;;;;21.78;77.60;94189.00;5064231;28;20043;-82
2023/07/15 02:08:02;;;;;;;12.85;7.43;;;;;;;21.77;77.42;94195.56;5063889;28;20027;-81
2023/07/15 02:10:30;;;;;;;13.00;7.60;;;;;;;21.81;77.21;94193.66;5065052;28;20096;-81
2023/07/15 02:12:56;;;;;;;11.43;8.27;;;;;;;21.84;76.96;94190.19;5065133;28;20025;-82
2023/07/15 02:15:21;;;;;;;13.85;7.53;;;;;;;21.82;76.98;94192.50;5064344;28;20024;-81
2023/07/15 02:17:46;;;;;;;14.18;7.43;;;;;;;21.81;77.05;94201.78;5065210;28;20025;-81
2023/07/15 02:20:12;;;;;;;12.93;7.55;;;;;;;21.79;77.26;94198.66;5064208;28;20028;-82
2023/07/15 02:22:38;;;;;;;12.35;7.90;;;;;;;21.78;77.28;94196.34;5065171;28;20098;-81
2023/07/15 02:25:04;;;;;;;9.93;7.05;;;;;;;21.77;77.34;94200.97;5065607;28;20021;-82
2023/07/15 02:27:30;;;;;;;17.83;7.22;;;;;;;21.77;77.09;94192.06;5067783;28;20021;-82
2023/07/15 02:29:56;;;;;;;17.13;7.70;;;;;;;21.69;77.49;94196.66;5069017;28;20028;-82
2023/07/15 02:32:39;;;;;;;17.48;7.65;;;;;;;21.73;77.43;94194.75;5066506;28;20373;-82
2023/07/15 02:35:09;;;;;;;15.70;7.35;;;;;;;21.72;77.13;94195.16;5065620;28;20035;-80
2023/07/15 02:37:39;;;;;;;13.88;7.47;;;;;;;21.72;77.10;94198.63;5065555;28;20020;-81
2023/07/15 02:40:05;;;;;;;13.30;7.90;;;;;;;21.69;76.89;94204.03;5064349;28;20219;-82
2023/07/15 02:42:33;;;;;;;19.70;8.30;;;;;;;21.60;77.50;94202.41;5064647;28;20020;-80
2023/07/15 02:45:00;;;;;;;15.20;7.18;;;;;;;21.60;77.58;94196.22;5065300;28;20063;-81
2023/07/15 02:47:26;;;;;;;12.13;6.88;;;;;;;21.59;77.47;94189.22;5064953;28;20096;-82
2023/07/15 02:49:52;;;;;;;15.65;7.13;;;;;;;21.57;77.54;94196.94;5064730;28;20311;-81
2023/07/15 02:52:17;;;;;;;16.45;7.68;;;;;;;21.56;77.87;94200.81;5063739;28;20028;-81
2023/07/15 02:54:43;;;;;;;13.15;8.30;;;;;;;21.55;77.84;94205.44;5064661;28;20051;-81
2023/07/15 02:57:08;;;;;;;13.60;8.38;;;;;;;21.53;78.13;94196.91;5064693;28;20051;-80
2023/07/15 02:59:34;;;;;;;11.77;7.72;;;;;;;21.50;77.99;94202.31;5064357;28;20024;-80
2023/07/15 03:02:00;;;;;;;18.63;8.25;;;;;;;21.46;78.19;94202.28;5064180;28;20021;-79
2023/07/15 03:04:26;;;;;;;16.77;7.47;;;;;;;21.47;78.42;94197.63;5063837;28;20370;-81
2023/07/15 03:06:52;;;;;;;17.70;7.85;;;;;;;21.43;78.70;94198.41;5062277;28;20112;-81
2023/07/15 03:09:18;;;;;;;16.75;8.30;;;;;;;21.40;78.74;94215.38;5064385;28;20318;-82
2023/07/15 03:11:43;;;;;;;13.77;8.00;;;;;;;21.39;79.08;94207.59;5063522;28;20070;-82
2023/07/15 03:14:09;;;;;;;19.27;7.80;;;;;;;21.44;79.07;94204.59;5064031;28;20071;-80
2023/07/15 03:16:34;;;;;;;21.52;8.75;;;;;;;21.44;78.95;94212.72;5062653;28;20355;-81
2023/07/15 03:19:00;;;;;;;13.98;7.25;;;;;;;21.39;78.97;94211.09;5063614;28;20021;-81
2023/07/15 03:21:25;;;;;;;15.60;8.35;;;;;;;21.34;79.24;94208.72;5063594;28;20266;-81
2023/07/15 03:23:50;;;;;;;17.95;9.90;;;;;;;21.38;79.29;94203.34;5062539;28;20251;-81
2023/07/15 03:26:16;;;;;;;21.27;7.47;;;;;;;21.43;79.09;94203.81;5062500;28;20028;-81
2023/07/15 03:28:41;;;;;;;17.60;8.65;;;;;;;21.46;79.25;94209.66;5063601;28;20143;-81
2023/07/15 03:31:07;;;;;;;13.13;8.30;;;;;;;21.47;79.27;94211.19;5062328;28;20211;-81
2023/07/15 03:33:32;;;;;;;11.40;8.13;;;;;;;21.42;79.10;94212.28;5062145;28;20021;-82
2023/07/15 03:36:00;;;;;;;12.93;8.15;;;;;;;21.36;79.71;94209.13;5063202;28;20028;-81
2023/07/15 03:38:26;;;;;;;14.70;8.05;;;;;;;21.39;79.77;94202.19;5063298;28;20099;-81
2023/07/15 03:40:53;;;;;;;20.85;8.80;;;;;;;21.41;79.81;94206.09;5063084;28;20020;-81
2023/07/15 03:43:19;;;;;;;22.40;8.93;;;;;;;21.48;79.80;94204.63;5063028;28;20311;-81
2023/07/15 03:45:44;;;;;;;18.42;9.05;;;;;;;21.54;79.38;94201.19;5061775;28;20025;-81
2023/07/15 03:48:10;;;;;;;21.35;9.30;;;;;;;21.54;79.49;94189.56;5062930;28;20040;-81
2023/07/15 03:50:35;;;;;;;13.90;8.93;;;;;;;21.54;79.48;94195.00;5063152;28;20025;-82
2023/07/15 03:53:01;;;;;;;21.73;7.82;;;;;;;21.62;79.39;94196.63;5061790;28;20020;-81
2023/07/15 03:55:26;;;;;;;19.20;8.38;;;;;;;21.63;78.96;94198.16;5061461;28;20234;-81
2023/07/15 03:57:52;;;;;;;22.60;9.13;;;;;;;21.66;79.11;94205.56;5062933;28;20047;-81
2023/07/15 04:00:17;;;;;;;35.72;9.48;;;;;;;21.64;79.23;94202.44;5063219;28;20026;-82
2023/07/15 04:02:44;;;;;;;37.28;10.15;;;;;;;21.69;79.35;94210.22;5061943;28;20104;-81
2023/07/15 04:05:11;;;;;;;26.75;9.00;;;;;;;21.71;79.22;94213.34;5062947;28;20037;-82
2023/07/15 04:07:37;;;;;;;24.13;9.23;;;;;;;21.72;79.20;94214.13;5062909;28;20013;-81
2023/07/15 04:10:02;;;;;;;18.67;9.90;;;;;;;21.63;79.71;94211.72;5062707;28;20013;-81
2023/07/15 04:12:28;;;;;;;19.15;9.27;;;;;;;21.67;79.61;94220.66;5062809;28;20323;-82
2023/07/15 04:14:53;;;;;;;20.63;8.98;;;;;;;21.67;79.76;94223.38;5062954;28;20044;-81
2023/07/15 04:17:18;;;;;;;15.13;9.10;;;;;;;21.64;79.67;94229.56;5063961;28;20048;-82
2023/07/15 04:19:44;;;;;;;16.38;9.05;;;;;;;21.67;79.59;94234.22;5066828;28;20096;-81
2023/07/15 04:22:09;;;;;;;16.45;10.63;;;;;;;21.70;79.61;94240.84;5066858;28;20017;-81
2023/07/15 04:24:34;;;;;;;19.63;8.80;;;;;;;21.72;79.26;94239.31;5066760;28;20029;-81
2023/07/15 04:27:02;;;;;;;20.77;9.48;;;;;;;21.73;79.13;94242.81;5066450;28;20044;-81
2023/07/15 04:29:30;;;;;;;14.65;8.35;;;;;;;21.74;78.95;94242.44;5066422;28;20021;-81
2023/07/15 04:31:56;;;;;;;25.33;8.02;;;;;;;21.77;78.44;94251.75;5066415;28;20031;-82
2023/07/15 04:34:21;;;;;;;17.08;9.35;;;;;;;21.79;78.58;94257.59;5066528;28;20024;-83
2023/07/15 04:36:46;;;;;;;36.65;9.05;;;;;;;21.74;79.00;94247.09;5066486;28;20064;-82
2023/07/15 04:39:12;;;;;;;28.45;9.43;;;;;;;21.76;79.14;94255.63;5066617;28;20024;-82
2023/07/15 04:41:37;;;;;;;45.60;11.30;;;;;;;21.81;78.96;94247.91;5066437;28;20023;-82
2023/07/15 04:44:03;;;;;;;22.73;9.32;;;;;;;21.89;78.78;94256.91;5066478;28;20013;-82
2023/07/15 04:46:29;;;;;;;18.17;8.73;;;;;;;21.99;78.10;94258.13;5066410;28;20020;-82
2023/07/15 04:48:55;;;;;;;22.50;9.57;;;;;;;22.11;77.92;94249.69;5066188;28;20099;-81
2023/07/15 04:51:20;;;;;;;27.80;11.30;;;;;;;22.14;77.38;94257.06;5065971;28;20349;-81
2023/07/15 04:53:46;;;;;;;24.17;9.82;;;;;;;22.21;77.48;94257.13;5065929;28;20033;-80
2023/07/15 04:56:11;;;;;;;25.52;10.15;;;;;;;22.30;77.03;94258.78;5066080;28;20030;-81
2023/07/15 04:58:38;;;;;;;22.17;8.93;;;;;;;22.33;76.99;94250.66;5065692;28;20096;-80
2023/07/15 05:01:03;;;;;;;30.98;9.88;;;;;;;22.36;76.74;94247.16;5064548;28;20021;-81
2023/07/15 05:03:30;;;;;;;24.77;9.18;;;;;;;22.37;76.49;94250.69;5065813;28;20040;-81
2023/07/15 05:05:55;;;;;;;39.10;11.10;;;;;;;22.37;77.01;94248.75;5065723;28;20021;-81
2023/07/15 05:08:22;;;;;;;36.05;11.15;;;;;;;22.43;76.63;94249.16;5065854;28;20254;-81
2023/07/15 05:10:54;;;;;;;20.50;10.60;;;;;;;22.43;76.70;94246.47;5065444;28;20319;-80
2023/07/15 05:13:19;;;;;;;28.65;10.02;;;;;;;22.50;76.61;94248.44;5065719;28;20044;-82
2023/07/15 05:15:45;;;;;;;20.52;9.82;;;;;;;22.57;76.32;94259.31;5065647;28;20028;-81
2023/07/15 05:18:10;;;;;;;14.48;9.38;;;;;;;22.58;75.68;94248.06;5065659;28;20040;-81
2023/07/15 05:20:37;;;;;;;25.00;10.13;;;;;;;22.66;75.80;94248.13;5065353;28;20226;-82
2023/07/15 05:23:03;;;;;;;28.35;9.93;;;;;;;22.75;75.48;94251.25;5065245;28;20031;-82
2023/07/15 05:25:29;;;;;;;31.25;10.73;;;;;;;22.73;75.81;94248.91;5065318;28;20020;-83
2023/07/15 05:27:56;;;;;;;33.25;11.07;;;;;;;22.82;75.92;94248.59;5064394;28;20059;-83
2023/07/15 05:30:22;;;;;;;19.25;9.98;;;;;;;22.94;75.61;94255.59;5064878;28;20013;-81
2023/07/15 05:32:48;;;;;;;19.05;9.98;;;;;;;23.08;74.66;94252.19;5065408;28;20055;-81
2023/07/15 05:35:14;;;;;;;16.70;11.27;;;;;;;23.13;74.38;94254.56;5065517;28;20060;-83
2023/07/15 05:37:40;;;;;;;17.13;9.70;;;;;;;23.22;73.88;94249.53;5065339;28;20058;-83
2023/07/15 05:40:09;;;;;;;26.50;11.10;;;;;;;23.34;72.72;94254.59;5065307;28;20136;-84
2023/07/15 05:42:40;;;;;;;15.77;9.82;;;;;;;23.44;72.73;94251.13;5065347;28;20151;-83
2023/07/15 05:45:06;;;;;;;18.30;10.57;;;;;;;23.42;72.57;94249.97;5065135;28;20299;-82
2023/07/15 05:47:32;;;;;;;17.77;10.60;;;;;;;23.54;72.09;94257.00;5064970;28;20025;-83
2023/07/15 05:49:57;;;;;;;21.73;10.05;;;;;;;23.66;71.72;94267.50;5065136;28;20027;-84
2023/07/15 05:52:23;;;;;;;16.58;9.60;;;;;;;23.69;71.00;94263.22;5065232;28;20043;-83
2023/07/15 05:54:48;;;;;;;42.28;10.50;;;;;;;23.76;71.67;94264.00;5064866;28;20437;-83
2023/07/15 05:57:13;;;;;;;31.92;10.48;;;;;;;23.75;71.27;94265.19;5065028;28;20132;-82
2023/07/15 05:59:39;;;;;;;20.65;10.80;;;;;;;23.77;71.25;94273.78;5064553;28;20088;-82
2023/07/15 06:02:05;;;;;;;26.70;10.25;;;;;;;23.76;71.50;94277.63;5065020;28;20033;-82
2023/07/15 06:04:30;;;;;;;20.85;9.93;;;;;;;23.75;71.72;94278.81;5064619;28;20024;-80
2023/07/15 06:06:56;;;;;;;17.45;9.77;;;;;;;23.80;71.74;94275.72;5064555;28;20056;-80
2023/07/15 06:09:21;;;;;;;19.92;10.23;;;;;;;23.86;71.68;94278.06;5064494;28;20295;-79
2023/07/15 06:11:46;;;;;;;17.42;10.15;;;;;;;23.87;71.20;94274.94;5065051;28;20082;-82
2023/07/15 06:14:12;;;;;;;20.88;9.80;;;;;;;23.98;70.62;94272.25;5064901;28;20078;-83
2023/07/15 06:16:37;;;;;;;18.13;10.40;;;;;;;24.05;70.42;94264.06;5064734;28;20051;-82
2023/07/15 06:19:03;;;;;;;17.63;11.32;;;;;;;24.14;70.14;94267.19;5063229;28;20029;-86
2023/07/15 06:21:28;;;;;;;25.92;10.40;;;;;;;24.13;70.66;94265.59;5063351;28;20036;-82
2023/07/15 06:23:54;;;;;;;19.63;11.63;;;;;;;24.28;70.51;94257.44;5065121;28;20031;-84
2023/07/15 06:26:19;;;;;;;22.38;10.48;;;;;;;24.42;69.91;94254.69;5063172;28;20261;-81
2023/07/15 06:28:45;;;;;;;16.25;9.35;;;;;;;24.54;68.49;94262.47;5064789;28;20035;-85
2023/07/15 06:31:10;;;;;;;19.27;10.05;;;;;;;24.69;67.96;94244.16;5064575;28;20203;-85
2023/07/15 06:33:36;;;;;;;23.23;10.45;;;;;;;24.83;67.21;94252.28;5065036;28;20021;-88
2023/07/15 06:36:03;;;;;;;21.75;9.23;;;;;;;24.92;66.33;94249.13;5064863;28;20017;-87
2023/07/15 06:38:29;;;;;;;19.92;9.98;;;;;;;25.08;65.75;94254.13;5064627;28;20021;-83
2023/07/15 06:40:58;;;;;;;19.08;9.85;;;;;;;25.22;65.15;94251.38;5062841;28;20035;-86
2023/07/15 06:43:23;;;;;;;19.35;9.75;;;;;;;25.27;63.89;94252.91;5064293;28;20020;-86
2023/07/15 06:45:49;;;;;;;21.17;9.48;;;;;;;25.30;63.88;94254.84;5063569;28;20021;-84
2023/07/15 06:48:17;;;;;;;26.58;9.85;;;;;;;25.22;63.92;94261.50;5065142;28;20093;-87
2023/07/15 06:50:42;;;;;;;13.98;8.65;;;;;;;25.32;64.37;94249.78;5064281;28;20021;-88
2023/07/15 06:53:07;;;;;;;18.40;9.95;;;;;;;25.38;63.22;94252.84;5062830;28;20055;-77
2023/07/15 06:55:33;;;;;;;18.13;9.45;;;;;;;25.20;62.52;94258.38;5063533;28;20029;-78
2023/07/15 06:57:58;;;;;;;18.55;9.57;;;;;;;25.28;62.82;94248.22;5063657;28;20029;-78
2023/07/15 07:00:24;;;;;;;18.35;9.35;;;;;;;25.18;63.01;94245.13;5063557;28;20135;-78
2023/07/15 07:02:50;;;;;;;27.77;10.02;;;;;;;25.21;63.10;94249.03;5063590;28;20025;-79
2023/07/15 07:05:16;;;;;;;21.73;9.95;;;;;;;25.40;62.81;94254.00;5063313;28;20086;-78
2023/07/15 07:07:42;;;;;;;18.27;9.98;;;;;;;25.55;61.72;94259.38;5063708;28;20039;-77
2023/07/15 07:10:08;;;;;;;17.00;9.65;;;;;;;25.66;61.80;94251.13;5062620;28;20041;-77
2023/07/15 07:12:33;;;;;;;15.80;8.88;;;;;;;25.79;61.53;94250.25;5063567;28;20344;-76
2023/07/15 07:14:59;;;;;;;22.02;8.95;;;;;;;25.94;60.48;94258.38;5062793;28;20044;-76
2023/07/15 07:17:25;;;;;;;20.83;9.35;;;;;;;26.11;60.44;94257.44;5063701;28;20035;-76
2023/07/15 07:19:50;;;;;;;16.73;8.05;;;;;;;26.26;59.74;94258.09;5063403;28;20025;-74
2023/07/15 07:22:15;;;;;;;17.27;7.95;;;;;;;26.40;59.21;94255.25;5063219;28;20066;-74
2023/07/15 07:24:41;;;;;;;16.70;8.02;;;;;;;26.51;58.33;94260.59;5062169;28;20349;-74
2023/07/15 07:27:06;;;;;;;19.33;8.23;;;;;;;26.59;57.62;94256.63;5063074;28;20032;-76
2023/07/15 07:29:32;;;;;;;20.65;9.82;;;;;;;26.56;57.41;94254.69;5063191;28;20020;-76
2023/07/15 07:31:57;;;;;;;16.40;8.65;;;;;;;26.69;58.10;94254.97;5063430;28;20025;-77
2023/07/15 07:34:22;;;;;;;17.17;9.40;;;;;;;26.81;57.50;94256.41;5063322;28;20311;-77
2023/07/15 07:36:48;;;;;;;16.35;9.18;;;;;;;26.90;56.76;94251.22;5063248;28;20021;-76
2023/07/15 07:39:13;;;;;;;23.20;9.50;;;;;;;26.98;57.57;94258.16;5063394;28;20017;-76
2023/07/15 07:41:40;;;;;;;18.58;8.93;;;;;;;27.08;56.64;94247.50;5063100;28;20340;-76
2023/07/15 07:44:05;;;;;;;13.85;8.85;;;;;;;27.19;56.24;94259.88;5063241;28;20222;-77
2023/07/15 07:46:31;;;;;;;19.40;8.98;;;;;;;27.30;55.53;94248.06;5062093;28;20029;-77
2023/07/15 07:48:56;;;;;;;20.42;9.10;;;;;;;27.40;55.31;94244.41;5063142;28;20025;-77
2023/07/15 07:51:22;;;;;;;18.75;8.43;;;;;;;27.47;55.69;94251.72;5061633;28;20373;-80
2023/07/15 07:53:47;;;;;;;15.02;8.60;;;;;;;27.46;56.00;94250.16;5062693;28;20064;-80
2023/07/15 07:56:13;;;;;;;16.35;8.15;;;;;;;27.48;55.80;94253.25;5062915;28;20029;-79
2023/07/15 07:58:39;;;;;;;17.08;9.07;;;;;;;27.60;56.13;94250.75;5062921;28;20311;-80
2023/07/15 08:01:04;;;;;;;15.70;9.02;;;;;;;27.64;55.44;94244.44;5063083;28;20025;-80
2023/07/15 08:03:30;;;;;;;13.13;8.55;;;;;;;27.71;55.05;94247.09;5063001;28;20088;-80
2023/07/15 08:05:57;;;;;;;15.07;9.00;;;;;;;27.85;55.46;94246.09;5061503;28;20017;-80
2023/07/15 08:08:22;;;;;;;15.63;8.73;;;;;;;27.88;55.48;94251.53;5063230;28;20021;-80
2023/07/15 08:10:48;;;;;;;17.70;7.93;;;;;;;27.87;54.97;94246.50;5062116;28;20319;-81
2023/07/15 08:13:13;;;;;;;19.63;9.13;;;;;;;27.92;54.55;94248.75;5063284;28;20023;-80
2023/07/15 08:15:39;;;;;;;18.15;9.68;;;;;;;27.95;54.02;94253.41;5063173;28;20312;-81
2023/07/15 08:18:05;;;;;;;16.40;9.60;;;;;;;27.87;53.72;94257.44;5062909;28;20092;-81
2023/07/15 08:20:30;;;;;;;16.10;8.52;;;;;;;27.79;54.45;94252.03;5062905;28;20365;-81
2023/07/15 08:22:56;;;;;;;16.80;9.23;;;;;;;27.77;53.96;94259.91;5062993;28;20016;-81
2023/07/15 08:25:22;;;;;;;20.10;8.70;;;;;;;27.87;53.86;94255.47;5062882;28;20016;-80
2023/07/15 08:27:47;;;;;;;24.27;8.90;;;;;;;27.89;53.72;94257.81;5061846;28;20044;-80
2023/07/15 08:30:13;;;;;;;18.50;8.23;;;;;;;27.95;53.54;94254.19;5062455;28;20021;-85
2023/07/15 08:32:39;;;;;;;16.92;8.32;;;;;;;27.98;53.66;94249.81;5062807;28;20021;-85
2023/07/15 08:35:05;;;;;;;22.30;8.95;;;;;;;28.01;53.14;94258.00;5062996;28;20045;-84
2023/07/15 08:37:30;;;;;;;16.92;9.65;;;;;;;28.15;52.50;94258.94;5062666;28;20021;-82
2023/07/15 08:39:56;;;;;;;24.40;9.88;;;;;;;28.24;52.05;94250.19;5062556;28;20092;-81
2023/07/15 08:42:23;;;;;;;14.43;8.43;;;;;;;28.23;50.88;94251.38;5062183;28;20104;-82
2023/07/15 08:44:50;;;;;;;16.23;8.77;;;;;;;28.22;51.53;94250.63;5062296;28;20043;-81
2023/07/15 08:47:24;;;;;;;20.90;8.75;;;;;;;28.26;51.92;94256.03;5062025;28;20123;-82
2023/07/15 08:49:52;;;;;;;17.13;8.60;;;;;;;28.34;52.98;94247.28;5062139;28;20111;-81
2023/07/15 08:52:19;;;;;;;15.85;8.68;;;;;;;28.47;52.54;94252.91;5061948;28;20049;-81
2023/07/15 08:54:48;;;;;;;19.88;9.48;;;;;;;28.62;51.81;94245.25;5062055;28;20041;-81
2023/07/15 08:57:16;;;;;;;21.58;10.27;;;;;;;28.76;50.02;94238.72;5061194;28;20101;-82
2023/07/15 08:59:41;;;;;;;24.00;9.02;;;;;;;28.61;50.93;94247.19;5060452;28;20319;-82
2023/07/15 09:02:07;;;;;;;18.90;8.75;;;;;;;28.75;51.16;94243.44;5060430;28;20027;-81
2023/07/15 09:04:33;;;;;;;17.75;9.57;;;;;;;28.84;50.75;94242.88;5061790;28;20096;-80
2023/07/15 09:06:59;;;;;;;17.50;8.75;;;;;;;28.95;50.26;94242.69;5062537;28;20020;-80
2023/07/15 09:09:32;;;;;;;32.20;10.18;;;;;;;28.94;48.78;94244.66;5063785;28;20234;-80
2023/07/15 09:12:06;;;;;;;16.30;8.75;;;;;;;28.94;49.11;94250.13;5063518;28;20339;-81
2023/07/15 09:14:37;;;;;;;21.55;8.85;;;;;;;28.93;48.80;94248.56;5063676;28;20040;-81
2023/07/15 09:17:02;;;;;;;20.25;8.90;;;;;;;28.98;49.71;94245.34;5063826;28;20079;-81
2023/07/15 09:19:32;;;;;;;16.58;8.95;;;;;;;29.14;50.57;94246.63;5065265;28;20370;-81
2023/07/15 09:22:07;;;;;;;18.65;9.60;;;;;;;29.23;49.56;94252.34;5064821;28;20021;-78
2023/07/15 09:24:35;;;;;;;16.13;9.05;;;;;;;29.26;48.68;94237.75;5064185;28;20051;-80
2023/07/15 09:27:00;;;;;;;17.13;9.30;;;;;;;29.33;48.99;94236.81;5063242;28;20045;-80
2023/07/15 09:29:26;;;;;;;16.83;9.30;;;;;;;29.46;49.85;94239.69;5063154;28;20311;-80
2023/07/15 09:31:52;;;;;;;17.77;9.60;;;;;;;29.54;48.84;94232.84;5064041;28;20084;-80
2023/07/15 09:34:18;;;;;;;20.17;9.70;;;;;;;29.65;48.55;94233.38;5064667;28;20091;-81
2023/07/15 09:36:43;;;;;;;24.52;9.20;;;;;;;29.69;48.02;94225.81;5065169;28;20063;-80
2023/07/15 09:39:13;;;;;;;19.27;8.43;;;;;;;29.64;48.42;94228.31;5064976;28;20020;-80
2023/07/15 09:41:40;;;;;;;14.43;9.48;;;;;;;29.79;47.60;94235.81;5064864;28;20222;-80
2023/07/15 09:44:06;;;;;;;16.02;8.07;;;;;;;29.94;48.50;94232.72;5064099;28;20047;-80
2023/07/15 09:46:32;;;;;;;17.38;9.05;;;;;;;29.99;48.66;94218.50;5063049;28;20033;-80
2023/07/15 09:48:57;;;;;;;19.27;9.27;;;;;;;30.19;48.71;94219.16;5062985;28;20020;-80
2023/07/15 09:51:25;;;;;;;20.92;9.18;;;;;;;30.30;47.14;94215.41;5063063;28;20089;-80
2023/07/15 09:53:52;;;;;;;22.83;9.10;;;;;;;30.36;48.06;94214.44;5062719;28;20365;-80
2023/07/15 09:56:21;;;;;;;14.13;9.38;;;;;;;30.43;47.76;94208.00;5062967;28;20025;-81
2023/07/15 09:58:50;;;;;;;13.82;8.70;;;;;;;30.63;47.29;94207.09;5062933;28;20029;-80
2023/07/15 10:01:30;;;;;;;20.33;9.68;;;;;;;30.79;46.41;94215.28;5063372;28;20063;-81
2023/07/15 10:04:07;;;;;;;14.07;8.30;;;;;;;30.90;45.49;94213.06;5064615;28;20027;-81
2023/07/15 10:06:33;;;;;;;21.77;9.95;;;;;;;30.98;45.66;94217.16;5064609;28;20231;-81
2023/07/15 10:09:00;;;;;;;21.17;9.80;;;;;;;31.11;45.36;94213.66;5064295;28;20044;-80
2023/07/15 10:11:25;;;;;;;18.08;9.05;;;;;;;31.21;44.95;94211.81;5064399;28;20179;-81
2023/07/15 10:13:51;;;;;;;22.40;8.95;;;;;;;31.22;43.70;94214.09;5064337;28;20044;-82
2023/07/15 10:16:18;;;;;;;18.70;10.38;;;;;;;31.06;43.94;94211.41;5064103;28;20089;-81
2023/07/15 10:18:46;;;;;;;23.92;10.23;;;;;;;31.14;44.55;94212.75;5064280;28;20025;-81
2023/07/15 10:21:14;;;;;;;25.05;9.13;;;;;;;31.24;44.33;94211.69;5064377;28;20204;-81
2023/07/15 10:23:40;;;;;;;15.55;9.10;;;;;;;31.39;43.45;94215.56;5064051;28;20021;-81
2023/07/15 10:26:08;;;;;;;21.23;10.25;;;;;;;31.56;43.34;94215.50;5064093;28;20403;-82
2023/07/15 10:28:34;;;;;;;21.30;10.45;;;;;;;31.67;42.96;94199.41;5063790;28;20039;-81
2023/07/15 10:31:15;;;;;;;20.92;9.10;;;;;;;31.64;42.68;94203.03;5064019;28;20029;-81
2023/07/15 10:34:04;;;;;;;19.40;10.35;;;;;;;31.64;43.06;94197.53;5064042;28;20091;-82
2023/07/15 10:36:35;;;;;;;20.20;9.40;;;;;;;31.51;44.12;94191.28;5063835;28;20028;-82
2023/07/15 10:39:16;;;;;;;16.92;9.20;;;;;;;31.57;43.77;94200.53;5063901;28;20037;-81
2023/07/15 10:41:52;;;;;;;19.58;9.10;;;;;;;31.58;43.10;94202.06;5063686;28;20025;-82
2023/07/15 10:44:25;;;;;;;25.95;9.70;;;;;;;31.48;42.42;94208.66;5063625;28;20017;-81
2023/07/15 10:47:01;;;;;;;22.10;9.20;;;;;;;31.45;43.03;94201.25;5063707;28;20025;-81
2023/07/15 10:49:27;;;;;;;15.00;8.65;;;;;;;31.45;43.64;94198.50;5063696;28;20025;-81
2023/07/15 10:51:54;;;;;;;16.27;9.65;;;;;;;31.59;45.10;94203.59;5063495;28;20039;-80
2023/07/15 10:54:22;;;;;;;20.35;10.02;;;;;;;31.83;44.34;94195.75;5063414;28;20284;-80
2023/07/15 10:56:47;;;;;;;17.42;9.63;;;;;;;32.05;43.39;94190.34;5063514;28;20032;-81
2023/07/15 10:59:13;;;;;;;23.40;9.65;;;;;;;32.18;42.21;94198.63;5063642;28;20179;-81
2023/07/15 11:01:39;;;;;;;28.33;9.63;;;;;;;32.30;43.53;94194.25;5062106;28;20028;-81
2023/07/15 11:04:05;;;;;;;17.45;8.63;;;;;;;32.47;42.99;94187.38;5063428;28;20043;-82
2023/07/15 11:06:32;;;;;;;19.42;9.23;;;;;;;32.69;42.62;94192.94;5063280;28;20031;-81
2023/07/15 11:08:58;;;;;;;27.83;9.00;;;;;;;32.87;42.07;94186.78;5063148;28;20109;-81
2023/07/15 11:11:23;;;;;;;16.48;9.27;;;;;;;33.09;42.57;94181.25;5063424;28;20231;-81
2023/07/15 11:13:49;;;;;;;27.52;9.45;;;;;;;33.30;40.92;94188.00;5063307;28;20058;-80
2023/07/15 11:16:15;;;;;;;23.35;10.63;;;;;;;33.43;40.73;94179.59;5063171;28;20250;-81
2023/07/15 11:18:40;;;;;;;20.30;9.07;;;;;;;33.45;39.95;94174.41;5063221;28;20029;-81
2023/07/15 11:21:06;;;;;;;16.60;8.85;;;;;;;33.60;40.50;94180.13;5063025;28;20041;-82